<?xml version="1.0" encoding="UTF-8" standalone="no" ?>
<gpx xmlns="http://www.topografix.com/GPX/1/1" xmlns:xsi="http://www.w3.org/2001/XMLSchema-instance" xsi:schemaLocation="http://www.topografix.com/GPX/1/1 http://www.topografix.com/GPX/1/1/gpx.xsd" version="1.1" creator="VisuGPX - https://www.visugpx.com">
  <metadata>
    <name>2024 05 22 Parcours Total 2024</name>
  </metadata>
  <trk>
    <name><![CDATA[Trail8 Boucle n°1]]></name>
    <extensions>
      <line xmlns="http://www.topografix.com/GPX/gpx_style/0/2">
        <color>00ff00</color>
        <width>6</width>
          <extensions>
            <sens>1</sens>
          </extensions>
      </line>
    </extensions>
    <trkseg>
      <trkpt lat="48.15" lon="3.3255">
        <ele>108.5</ele>
        <time>2023-12-22T09:50:23Z</time>
      </trkpt>
      <trkpt lat="48.15025" lon="3.32287">
        <ele>98</ele>
        <time>2023-12-22T09:50:15Z</time>
      </trkpt>
      <trkpt lat="48.15026" lon="3.32282">
        <ele>98</ele>
        <time>2023-12-22T09:50:09Z</time>
      </trkpt>
      <trkpt lat="48.15026" lon="3.32277">
        <ele>97.8</ele>
        <time>2023-12-22T09:50:06Z</time>
      </trkpt>
      <trkpt lat="48.15027" lon="3.32274">
        <ele>97.8</ele>
        <time>2023-12-22T09:50:03Z</time>
      </trkpt>
      <trkpt lat="48.15028" lon="3.32273">
        <ele>97.9</ele>
        <time>2023-12-22T09:50:02Z</time>
      </trkpt>
      <trkpt lat="48.15031" lon="3.32273">
        <ele>98.2</ele>
        <time>2023-12-22T09:49:54Z</time>
      </trkpt>
      <trkpt lat="48.15031" lon="3.32273">
        <ele>98.2</ele>
        <time>2023-12-22T09:49:51Z</time>
      </trkpt>
      <trkpt lat="48.15034" lon="3.32272">
        <ele>98.5</ele>
        <time>2023-12-22T09:49:45Z</time>
      </trkpt>
      <trkpt lat="48.15036" lon="3.32271">
        <ele>98.6</ele>
        <time>2023-12-22T09:49:38Z</time>
      </trkpt>
      <trkpt lat="48.15043" lon="3.32266">
        <ele>99.2</ele>
        <time>2023-12-22T09:49:31Z</time>
      </trkpt>
      <trkpt lat="48.15046" lon="3.32266">
        <ele>99.5</ele>
        <time>2023-12-22T09:49:28Z</time>
      </trkpt>
      <trkpt lat="48.15049" lon="3.32266">
        <ele>99.9</ele>
        <time>2023-12-22T09:49:25Z</time>
      </trkpt>
      <trkpt lat="48.15051" lon="3.32259">
        <ele>99.8</ele>
        <time>2023-12-22T09:49:20Z</time>
      </trkpt>
      <trkpt lat="48.15051" lon="3.32254">
        <ele>99.7</ele>
        <time>2023-12-22T09:49:17Z</time>
      </trkpt>
      <trkpt lat="48.15051" lon="3.32241">
        <ele>99.2</ele>
        <time>2023-12-22T09:49:10Z</time>
      </trkpt>
      <trkpt lat="48.15051" lon="3.3223">
        <ele>98.8</ele>
        <time>2023-12-22T09:49:03Z</time>
      </trkpt>
      <trkpt lat="48.15052" lon="3.32216">
        <ele>98.6</ele>
        <time>2023-12-22T09:48:55Z</time>
      </trkpt>
      <trkpt lat="48.15052" lon="3.32208">
        <ele>98.6</ele>
        <time>2023-12-22T09:48:50Z</time>
      </trkpt>
      <trkpt lat="48.15053" lon="3.32206">
        <ele>98.7</ele>
        <time>2023-12-22T09:48:49Z</time>
      </trkpt>
      <trkpt lat="48.15056" lon="3.32195">
        <ele>99.1</ele>
        <time>2023-12-22T09:48:41Z</time>
      </trkpt>
      <trkpt lat="48.15056" lon="3.32194">
        <ele>99.1</ele>
        <time>2023-12-22T09:48:40Z</time>
      </trkpt>
      <trkpt lat="48.15061" lon="3.32181">
        <ele>99.7</ele>
        <time>2023-12-22T09:48:31Z</time>
      </trkpt>
      <trkpt lat="48.15063" lon="3.32171">
        <ele>99.8</ele>
        <time>2023-12-22T09:48:25Z</time>
      </trkpt>
      <trkpt lat="48.15061" lon="3.32162">
        <ele>99</ele>
        <time>2023-12-22T09:48:18Z</time>
      </trkpt>
      <trkpt lat="48.1506" lon="3.32159">
        <ele>98.7</ele>
        <time>2023-12-22T09:48:15Z</time>
      </trkpt>
      <trkpt lat="48.15055" lon="3.32148">
        <ele>97.2</ele>
        <time>2023-12-22T09:48:06Z</time>
      </trkpt>
      <trkpt lat="48.15054" lon="3.32147">
        <ele>97.1</ele>
        <time>2023-12-22T09:48:05Z</time>
      </trkpt>
      <trkpt lat="48.15054" lon="3.32137">
        <ele>96.8</ele>
        <time>2023-12-22T09:47:58Z</time>
      </trkpt>
      <trkpt lat="48.15057" lon="3.32126">
        <ele>97.3</ele>
        <time>2023-12-22T09:47:51Z</time>
      </trkpt>
      <trkpt lat="48.15064" lon="3.32116">
        <ele>98.8</ele>
        <time>2023-12-22T09:47:41Z</time>
      </trkpt>
      <trkpt lat="48.15069" lon="3.32112">
        <ele>99.9</ele>
        <time>2023-12-22T09:47:34Z</time>
      </trkpt>
      <trkpt lat="48.15075" lon="3.32106">
        <ele>101.3</ele>
        <time>2023-12-22T09:47:27Z</time>
      </trkpt>
      <trkpt lat="48.15077" lon="3.32104">
        <ele>101.8</ele>
        <time>2023-12-22T09:47:25Z</time>
      </trkpt>
      <trkpt lat="48.15079" lon="3.32101">
        <ele>102.3</ele>
        <time>2023-12-22T09:47:21Z</time>
      </trkpt>
      <trkpt lat="48.15083" lon="3.32099">
        <ele>103.4</ele>
        <time>2023-12-22T09:47:14Z</time>
      </trkpt>
      <trkpt lat="48.15084" lon="3.32099">
        <ele>103.6</ele>
        <time>2023-12-22T09:47:13Z</time>
      </trkpt>
      <trkpt lat="48.1509" lon="3.32097">
        <ele>105.4</ele>
        <time>2023-12-22T09:47:05Z</time>
      </trkpt>
      <trkpt lat="48.15094" lon="3.32096">
        <ele>106.6</ele>
        <time>2023-12-22T09:46:59Z</time>
      </trkpt>
      <trkpt lat="48.15101" lon="3.32099">
        <ele>108.5</ele>
        <time>2023-12-22T09:46:49Z</time>
      </trkpt>
      <trkpt lat="48.15106" lon="3.32103">
        <ele>109.8</ele>
        <time>2023-12-22T09:46:41Z</time>
      </trkpt>
      <trkpt lat="48.1511" lon="3.32105">
        <ele>110.9</ele>
        <time>2023-12-22T09:46:34Z</time>
      </trkpt>
      <trkpt lat="48.15114" lon="3.32105">
        <ele>112.3</ele>
        <time>2023-12-22T09:46:28Z</time>
      </trkpt>
      <trkpt lat="48.15119" lon="3.32107">
        <ele>114.2</ele>
        <time>2023-12-22T09:46:20Z</time>
      </trkpt>
      <trkpt lat="48.15125" lon="3.32106">
        <ele>116.6</ele>
        <time>2023-12-22T09:46:11Z</time>
      </trkpt>
      <trkpt lat="48.1513" lon="3.32108">
        <ele>118.5</ele>
        <time>2023-12-22T09:46:04Z</time>
      </trkpt>
      <trkpt lat="48.15135" lon="3.3211">
        <ele>120.5</ele>
        <time>2023-12-22T09:45:55Z</time>
      </trkpt>
      <trkpt lat="48.1514" lon="3.32108">
        <ele>122.4</ele>
        <time>2023-12-22T09:45:46Z</time>
      </trkpt>
      <trkpt lat="48.15143" lon="3.32109">
        <ele>123.6</ele>
        <time>2023-12-22T09:45:39Z</time>
      </trkpt>
      <trkpt lat="48.15144" lon="3.3211">
        <ele>124</ele>
        <time>2023-12-22T09:45:38Z</time>
      </trkpt>
      <trkpt lat="48.15148" lon="3.32111">
        <ele>125.6</ele>
        <time>2023-12-22T09:45:30Z</time>
      </trkpt>
      <trkpt lat="48.15149" lon="3.32113">
        <ele>126</ele>
        <time>2023-12-22T09:45:21Z</time>
      </trkpt>
      <trkpt lat="48.15149" lon="3.32113">
        <ele>126</ele>
        <time>2023-12-22T09:45:20Z</time>
      </trkpt>
      <trkpt lat="48.15151" lon="3.32114">
        <ele>126.7</ele>
        <time>2023-12-22T09:45:12Z</time>
      </trkpt>
      <trkpt lat="48.15155" lon="3.3211">
        <ele>128.4</ele>
        <time>2023-12-22T09:45:03Z</time>
      </trkpt>
      <trkpt lat="48.15158" lon="3.32107">
        <ele>129.7</ele>
        <time>2023-12-22T09:44:56Z</time>
      </trkpt>
      <trkpt lat="48.1516" lon="3.32106">
        <ele>130.5</ele>
        <time>2023-12-22T09:44:50Z</time>
      </trkpt>
      <trkpt lat="48.15167" lon="3.32106">
        <ele>133.3</ele>
        <time>2023-12-22T09:44:41Z</time>
      </trkpt>
      <trkpt lat="48.15173" lon="3.32106">
        <ele>135.4</ele>
        <time>2023-12-22T09:44:32Z</time>
      </trkpt>
      <trkpt lat="48.15177" lon="3.32106">
        <ele>136.8</ele>
        <time>2023-12-22T09:44:25Z</time>
      </trkpt>
      <trkpt lat="48.15184" lon="3.32104">
        <ele>139.3</ele>
        <time>2023-12-22T09:44:16Z</time>
      </trkpt>
      <trkpt lat="48.15184" lon="3.32104">
        <ele>139.3</ele>
        <time>2023-12-22T09:44:15Z</time>
      </trkpt>
      <trkpt lat="48.1519" lon="3.32103">
        <ele>141.4</ele>
        <time>2023-12-22T09:44:08Z</time>
      </trkpt>
      <trkpt lat="48.15195" lon="3.32104">
        <ele>143.1</ele>
        <time>2023-12-22T09:44:00Z</time>
      </trkpt>
      <trkpt lat="48.15199" lon="3.32106">
        <ele>143.8</ele>
        <time>2023-12-22T09:43:52Z</time>
      </trkpt>
      <trkpt lat="48.15206" lon="3.32105">
        <ele>145.1</ele>
        <time>2023-12-22T09:43:44Z</time>
      </trkpt>
      <trkpt lat="48.15214" lon="3.32109">
        <ele>146.5</ele>
        <time>2023-12-22T09:43:36Z</time>
      </trkpt>
      <trkpt lat="48.15217" lon="3.32109">
        <ele>147.1</ele>
        <time>2023-12-22T09:43:33Z</time>
      </trkpt>
      <trkpt lat="48.15225" lon="3.32113">
        <ele>148.2</ele>
        <time>2023-12-22T09:43:28Z</time>
      </trkpt>
      <trkpt lat="48.15225" lon="3.32113">
        <ele>148.2</ele>
        <time>2023-12-22T09:43:26Z</time>
      </trkpt>
      <trkpt lat="48.15227" lon="3.32118">
        <ele>148.4</ele>
        <time>2023-12-22T09:43:19Z</time>
      </trkpt>
      <trkpt lat="48.1523" lon="3.32133">
        <ele>149.1</ele>
        <time>2023-12-22T09:43:12Z</time>
      </trkpt>
      <trkpt lat="48.15231" lon="3.32137">
        <ele>149.2</ele>
        <time>2023-12-22T09:43:08Z</time>
      </trkpt>
      <trkpt lat="48.15231" lon="3.3215">
        <ele>149.8</ele>
        <time>2023-12-22T09:43:01Z</time>
      </trkpt>
      <trkpt lat="48.1523" lon="3.32151">
        <ele>149.8</ele>
        <time>2018-12-15T11:56:23Z</time>
      </trkpt>
      <trkpt lat="48.15229" lon="3.32155">
        <ele>150</ele>
        <time>2018-12-15T11:56:22Z</time>
      </trkpt>
      <trkpt lat="48.15227" lon="3.32165">
        <ele>150.3</ele>
        <time>2018-12-15T11:56:20Z</time>
      </trkpt>
      <trkpt lat="48.1523" lon="3.32188">
        <ele>150.8</ele>
        <time>2018-12-15T11:56:15Z</time>
      </trkpt>
      <trkpt lat="48.15241" lon="3.32215">
        <ele>151.8</ele>
        <time>2018-12-15T11:56:08Z</time>
      </trkpt>
      <trkpt lat="48.15245" lon="3.32224">
        <ele>152.2</ele>
        <time>2018-12-15T11:56:04Z</time>
      </trkpt>
      <trkpt lat="48.15255" lon="3.32237">
        <ele>152.7</ele>
        <time>2018-12-15T11:55:59Z</time>
      </trkpt>
      <trkpt lat="48.15266" lon="3.32233">
        <ele>153.4</ele>
        <time>2018-12-15T11:55:56Z</time>
      </trkpt>
      <trkpt lat="48.15269" lon="3.32233">
        <ele>153.6</ele>
        <time>2018-12-15T11:55:55Z</time>
      </trkpt>
      <trkpt lat="48.15284" lon="3.32244">
        <ele>154</ele>
        <time>2018-12-15T11:55:50Z</time>
      </trkpt>
      <trkpt lat="48.15297" lon="3.32259">
        <ele>154.2</ele>
        <time>2018-12-15T11:55:43Z</time>
      </trkpt>
      <trkpt lat="48.15297" lon="3.32262">
        <ele>154.3</ele>
        <time>2018-12-15T11:55:35Z</time>
      </trkpt>
      <trkpt lat="48.15297" lon="3.32274">
        <ele>154.6</ele>
        <time>2018-12-15T11:55:29Z</time>
      </trkpt>
      <trkpt lat="48.15291" lon="3.32281">
        <ele>154.5</ele>
        <time>2018-12-15T11:55:26Z</time>
      </trkpt>
      <trkpt lat="48.15284" lon="3.32294">
        <ele>154.4</ele>
        <time>2018-12-15T11:55:22Z</time>
      </trkpt>
      <trkpt lat="48.1528" lon="3.32306">
        <ele>154.2</ele>
        <time>2018-12-15T11:55:19Z</time>
      </trkpt>
      <trkpt lat="48.15282" lon="3.32327">
        <ele>155.1</ele>
        <time>2018-12-15T11:55:14Z</time>
      </trkpt>
      <trkpt lat="48.15278" lon="3.32338">
        <ele>155.2</ele>
        <time>2018-12-15T11:55:11Z</time>
      </trkpt>
      <trkpt lat="48.15276" lon="3.32341">
        <ele>155.1</ele>
        <time>2018-12-15T11:55:10Z</time>
      </trkpt>
      <trkpt lat="48.15268" lon="3.32357">
        <ele>154.8</ele>
        <time>2018-12-15T11:55:04Z</time>
      </trkpt>
      <trkpt lat="48.15267" lon="3.32361">
        <ele>154.8</ele>
        <time>2018-12-15T11:54:55Z</time>
      </trkpt>
      <trkpt lat="48.15268" lon="3.32373">
        <ele>155.8</ele>
        <time>2018-12-15T11:54:49Z</time>
      </trkpt>
      <trkpt lat="48.15276" lon="3.32386">
        <ele>157.6</ele>
        <time>2018-12-15T11:54:44Z</time>
      </trkpt>
      <trkpt lat="48.15285" lon="3.324">
        <ele>159.3</ele>
        <time>2018-12-15T11:54:39Z</time>
      </trkpt>
      <trkpt lat="48.15285" lon="3.32411">
        <ele>160.1</ele>
        <time>2018-12-15T11:54:34Z</time>
      </trkpt>
      <trkpt lat="48.15285" lon="3.3241">
        <ele>160</ele>
        <time>2018-12-15T11:54:29Z</time>
      </trkpt>
      <trkpt lat="48.15285" lon="3.32414">
        <ele>160.3</ele>
        <time>2018-12-15T11:54:24Z</time>
      </trkpt>
      <trkpt lat="48.15285" lon="3.32426">
        <ele>161.4</ele>
        <time>2018-12-15T11:54:19Z</time>
      </trkpt>
      <trkpt lat="48.15285" lon="3.32448">
        <ele>163.5</ele>
        <time>2018-12-15T11:53:48Z</time>
      </trkpt>
      <trkpt lat="48.15285" lon="3.3245">
        <ele>163.7</ele>
        <time>2018-12-15T11:38:56Z</time>
      </trkpt>
      <trkpt lat="48.15274" lon="3.3245">
        <ele>163</ele>
        <time>2018-12-15T11:38:45Z</time>
      </trkpt>
      <trkpt lat="48.1527" lon="3.32444">
        <ele>162.1</ele>
        <time>2018-12-15T11:38:36Z</time>
      </trkpt>
      <trkpt lat="48.15264" lon="3.32436">
        <ele>160.6</ele>
        <time>2018-12-15T11:38:26Z</time>
      </trkpt>
      <trkpt lat="48.15263" lon="3.32435">
        <ele>160.4</ele>
        <time>2018-12-15T11:38:24Z</time>
      </trkpt>
      <trkpt lat="48.15257" lon="3.32428">
        <ele>159</ele>
        <time>2018-12-15T11:38:15Z</time>
      </trkpt>
      <trkpt lat="48.15256" lon="3.32427">
        <ele>158.8</ele>
        <time>2018-12-15T11:38:14Z</time>
      </trkpt>
      <trkpt lat="48.15252" lon="3.32421">
        <ele>157.7</ele>
        <time>2018-12-15T11:38:06Z</time>
      </trkpt>
      <trkpt lat="48.15247" lon="3.32413">
        <ele>156.3</ele>
        <time>2018-12-15T11:37:57Z</time>
      </trkpt>
      <trkpt lat="48.15241" lon="3.32409">
        <ele>155.2</ele>
        <time>2018-12-15T11:37:48Z</time>
      </trkpt>
      <trkpt lat="48.15234" lon="3.32409">
        <ele>154.1</ele>
        <time>2018-12-15T11:37:40Z</time>
      </trkpt>
      <trkpt lat="48.15228" lon="3.32409">
        <ele>153.3</ele>
        <time>2018-12-15T11:37:32Z</time>
      </trkpt>
      <trkpt lat="48.15223" lon="3.3241">
        <ele>152.6</ele>
        <time>2018-12-15T11:37:24Z</time>
      </trkpt>
      <trkpt lat="48.15218" lon="3.32408">
        <ele>151.6</ele>
        <time>2018-12-15T11:37:16Z</time>
      </trkpt>
      <trkpt lat="48.15212" lon="3.3241">
        <ele>150.6</ele>
        <time>2018-12-15T11:37:06Z</time>
      </trkpt>
      <trkpt lat="48.15206" lon="3.3241">
        <ele>149.5</ele>
        <time>2018-12-15T11:36:58Z</time>
      </trkpt>
      <trkpt lat="48.15203" lon="3.32408">
        <ele>148.7</ele>
        <time>2018-12-15T11:36:51Z</time>
      </trkpt>
      <trkpt lat="48.15197" lon="3.32407">
        <ele>147.4</ele>
        <time>2018-12-15T11:36:43Z</time>
      </trkpt>
      <trkpt lat="48.1519" lon="3.32406">
        <ele>145.8</ele>
        <time>2018-12-15T11:36:32Z</time>
      </trkpt>
      <trkpt lat="48.15185" lon="3.32409">
        <ele>145</ele>
        <time>2018-12-15T11:36:24Z</time>
      </trkpt>
      <trkpt lat="48.15182" lon="3.3241">
        <ele>144.5</ele>
        <time>2018-12-15T11:36:13Z</time>
      </trkpt>
      <trkpt lat="48.15174" lon="3.32412">
        <ele>143</ele>
        <time>2018-12-15T11:36:05Z</time>
      </trkpt>
      <trkpt lat="48.15164" lon="3.32412">
        <ele>140.6</ele>
        <time>2018-12-15T11:35:57Z</time>
      </trkpt>
      <trkpt lat="48.15157" lon="3.32414">
        <ele>138.8</ele>
        <time>2018-12-15T11:35:51Z</time>
      </trkpt>
      <trkpt lat="48.15146" lon="3.32417">
        <ele>136.1</ele>
        <time>2018-12-15T11:35:43Z</time>
      </trkpt>
      <trkpt lat="48.15139" lon="3.3242">
        <ele>134.5</ele>
        <time>2018-12-15T11:35:36Z</time>
      </trkpt>
      <trkpt lat="48.15128" lon="3.32425">
        <ele>132.5</ele>
        <time>2018-12-15T11:35:27Z</time>
      </trkpt>
      <trkpt lat="48.15127" lon="3.32426">
        <ele>132.3</ele>
        <time>2018-12-15T11:35:25Z</time>
      </trkpt>
      <trkpt lat="48.15119" lon="3.32432">
        <ele>131.2</ele>
        <time>2018-12-15T11:35:16Z</time>
      </trkpt>
      <trkpt lat="48.1511" lon="3.32432">
        <ele>128.9</ele>
        <time>2018-12-15T11:35:09Z</time>
      </trkpt>
      <trkpt lat="48.15106" lon="3.32442">
        <ele>129.2</ele>
        <time>2018-12-15T11:35:02Z</time>
      </trkpt>
      <trkpt lat="48.15102" lon="3.32446">
        <ele>128.5</ele>
        <time>2018-12-15T11:34:56Z</time>
      </trkpt>
      <trkpt lat="48.15095" lon="3.32451">
        <ele>127.1</ele>
        <time>2018-12-15T11:34:47Z</time>
      </trkpt>
      <trkpt lat="48.15091" lon="3.32454">
        <ele>126.2</ele>
        <time>2018-12-15T11:34:40Z</time>
      </trkpt>
      <trkpt lat="48.15086" lon="3.32452">
        <ele>124.6</ele>
        <time>2018-12-15T11:34:32Z</time>
      </trkpt>
      <trkpt lat="48.15083" lon="3.32455">
        <ele>124</ele>
        <time>2018-12-15T11:34:25Z</time>
      </trkpt>
      <trkpt lat="48.15072" lon="3.32462">
        <ele>121.4</ele>
        <time>2018-12-15T11:34:16Z</time>
      </trkpt>
      <trkpt lat="48.15064" lon="3.32467">
        <ele>119.3</ele>
        <time>2018-12-15T11:34:09Z</time>
      </trkpt>
      <trkpt lat="48.15062" lon="3.32469">
        <ele>118.8</ele>
        <time>2018-12-15T11:34:07Z</time>
      </trkpt>
      <trkpt lat="48.15058" lon="3.32471">
        <ele>117.7</ele>
        <time>2018-12-15T11:34:03Z</time>
      </trkpt>
      <trkpt lat="48.15049" lon="3.32477">
        <ele>115.5</ele>
        <time>2018-12-15T11:33:56Z</time>
      </trkpt>
      <trkpt lat="48.15038" lon="3.32483">
        <ele>112.7</ele>
        <time>2018-12-15T11:33:47Z</time>
      </trkpt>
      <trkpt lat="48.15034" lon="3.32494">
        <ele>112.4</ele>
        <time>2018-12-15T11:33:41Z</time>
      </trkpt>
      <trkpt lat="48.1503" lon="3.32509">
        <ele>112</ele>
        <time>2018-12-15T11:33:33Z</time>
      </trkpt>
      <trkpt lat="48.15026" lon="3.32523">
        <ele>111.5</ele>
        <time>2018-12-15T11:33:25Z</time>
      </trkpt>
      <trkpt lat="48.15018" lon="3.32534">
        <ele>110.7</ele>
        <time>2018-12-15T11:33:18Z</time>
      </trkpt>
      <trkpt lat="48.15008" lon="3.32548">
        <ele>109.9</ele>
        <time>2018-12-15T11:33:08Z</time>
      </trkpt>
      <trkpt lat="48.15006" lon="3.3255">
        <ele>109.7</ele>
        <time>2018-12-15T11:33:06Z</time>
      </trkpt>
      <trkpt lat="48.14998" lon="3.3256">
        <ele>109.1</ele>
        <time>2018-12-15T11:32:59Z</time>
        <extensions>
          <visugpx:TrkExtension xmlns:visugpx="https://www.visugpx.com/editgpx/">
            <visugpx:node>1</visugpx:node>
            </visugpx:TrkExtension>
        </extensions>
      </trkpt>
    </trkseg>
  </trk>
</gpx>